sensor_id;sensor_type;location;lat;lon;timestamp;P1;durP1;ratioP1;P2;durP2;ratioP2
6566;SDS011;3317;43.994;22.878;2022-08-21T00:01:59;22.40;;;13.00;;
6566;SDS011;3317;43.994;22.878;2022-08-21T00:04:27;16.67;;;13.70;;
6566;SDS011;3317;43.994;22.878;2022-08-21T00:06:55;17.93;;;13.00;;
6566;SDS011;3317;43.994;22.878;2022-08-21T00:09:22;19.97;;;13.27;;
6566;SDS011;3317;43.994;22.878;2022-08-21T00:11:49;20.50;;;14.50;;
6566;SDS011;3317;43.994;22.878;2022-08-21T00:14:16;20.57;;;13.77;;
6566;SDS011;3317;43.994;22.878;2022-08-21T00:16:43;18.60;;;13.83;;
6566;SDS011;3317;43.994;22.878;2022-08-21T00:19:11;19.90;;;14.30;;
6566;SDS011;3317;43.994;22.878;2022-08-21T00:21:38;22.77;;;15.60;;
6566;SDS011;3317;43.994;22.878;2022-08-21T00:24:07;16.50;;;13.30;;
6566;SDS011;3317;43.994;22.878;2022-08-21T00:26:34;19.23;;;14.37;;
6566;SDS011;3317;43.994;22.878;2022-08-21T00:29:01;20.00;;;13.50;;
6566;SDS011;3317;43.994;22.878;2022-08-21T00:31:28;17.50;;;13.77;;
6566;SDS011;3317;43.994;22.878;2022-08-21T00:33:55;18.90;;;13.80;;
6566;SDS011;3317;43.994;22.878;2022-08-21T00:36:22;22.63;;;13.57;;
6566;SDS011;3317;43.994;22.878;2022-08-21T00:38:49;20.63;;;14.23;;
6566;SDS011;3317;43.994;22.878;2022-08-21T00:41:18;22.00;;;15.20;;
6566;SDS011;3317;43.994;22.878;2022-08-21T00:43:45;18.10;;;14.50;;
6566;SDS011;3317;43.994;22.878;2022-08-21T00:46:12;21.17;;;16.30;;
6566;SDS011;3317;43.994;22.878;2022-08-21T00:48:40;18.77;;;14.70;;
6566;SDS011;3317;43.994;22.878;2022-08-21T00:51:10;18.93;;;15.10;;
6566;SDS011;3317;43.994;22.878;2022-08-21T00:53:47;21.73;;;16.33;;
6566;SDS011;3317;43.994;22.878;2022-08-21T00:56:20;19.67;;;14.73;;
6566;SDS011;3317;43.994;22.878;2022-08-21T00:58:51;14.20;;;11.90;;
6566;SDS011;3317;43.994;22.878;2022-08-21T01:01:20;16.03;;;11.87;;
6566;SDS011;3317;43.994;22.878;2022-08-21T01:03:47;18.03;;;13.77;;
6566;SDS011;3317;43.994;22.878;2022-08-21T01:06:14;22.03;;;16.50;;
6566;SDS011;3317;43.994;22.878;2022-08-21T01:08:41;17.60;;;13.67;;
6566;SDS011;3317;43.994;22.878;2022-08-21T01:11:09;16.17;;;12.80;;
6566;SDS011;3317;43.994;22.878;2022-08-21T01:13:37;17.30;;;13.47;;
6566;SDS011;3317;43.994;22.878;2022-08-21T01:16:12;21.13;;;15.87;;
6566;SDS011;3317;43.994;22.878;2022-08-21T01:18:41;19.20;;;13.50;;
6566;SDS011;3317;43.994;22.878;2022-08-21T01:21:11;24.20;;;14.40;;
6566;SDS011;3317;43.994;22.878;2022-08-21T01:23:41;18.57;;;14.43;;
6566;SDS011;3317;43.994;22.878;2022-08-21T01:26:09;22.60;;;16.03;;
6566;SDS011;3317;43.994;22.878;2022-08-21T01:28:40;22.83;;;15.10;;
6566;SDS011;3317;43.994;22.878;2022-08-21T01:31:10;21.87;;;16.20;;
6566;SDS011;3317;43.994;22.878;2022-08-21T01:33:40;19.27;;;15.07;;
6566;SDS011;3317;43.994;22.878;2022-08-21T01:36:08;18.67;;;14.13;;
6566;SDS011;3317;43.994;22.878;2022-08-21T01:38:37;14.90;;;13.07;;
6566;SDS011;3317;43.994;22.878;2022-08-21T01:41:04;19.03;;;14.10;;
6566;SDS011;3317;43.994;22.878;2022-08-21T01:43:30;19.30;;;15.17;;
6566;SDS011;3317;43.994;22.878;2022-08-21T01:45:58;19.87;;;14.87;;
6566;SDS011;3317;43.994;22.878;2022-08-21T01:48:25;19.77;;;14.80;;
6566;SDS011;3317;43.994;22.878;2022-08-21T01:50:52;20.53;;;14.60;;
6566;SDS011;3317;43.994;22.878;2022-08-21T01:53:19;19.30;;;15.27;;
6566;SDS011;3317;43.994;22.878;2022-08-21T01:55:47;16.00;;;13.10;;
6566;SDS011;3317;43.994;22.878;2022-08-21T01:58:14;12.03;;;9.73;;
6566;SDS011;3317;43.994;22.878;2022-08-21T02:00:41;20.43;;;14.10;;
6566;SDS011;3317;43.994;22.878;2022-08-21T02:03:08;12.97;;;10.80;;
6566;SDS011;3317;43.994;22.878;2022-08-21T02:05:35;14.50;;;11.37;;
6566;SDS011;3317;43.994;22.878;2022-08-21T02:08:02;12.70;;;11.33;;
6566;SDS011;3317;43.994;22.878;2022-08-21T02:10:32;18.23;;;11.10;;
6566;SDS011;3317;43.994;22.878;2022-08-21T02:13:01;17.27;;;12.30;;
6566;SDS011;3317;43.994;22.878;2022-08-21T02:15:28;14.13;;;11.90;;
6566;SDS011;3317;43.994;22.878;2022-08-21T02:17:57;13.43;;;11.03;;
6566;SDS011;3317;43.994;22.878;2022-08-21T02:20:25;16.10;;;12.27;;
6566;SDS011;3317;43.994;22.878;2022-08-21T02:22:54;13.50;;;11.13;;
6566;SDS011;3317;43.994;22.878;2022-08-21T02:25:22;19.77;;;12.17;;
6566;SDS011;3317;43.994;22.878;2022-08-21T02:27:51;18.57;;;14.27;;
6566;SDS011;3317;43.994;22.878;2022-08-21T02:30:23;23.53;;;16.20;;
6566;SDS011;3317;43.994;22.878;2022-08-21T02:32:53;21.00;;;15.33;;
6566;SDS011;3317;43.994;22.878;2022-08-21T02:35:20;20.10;;;15.23;;
6566;SDS011;3317;43.994;22.878;2022-08-21T02:37:48;20.20;;;15.50;;
6566;SDS011;3317;43.994;22.878;2022-08-21T02:40:17;23.00;;;15.23;;
6566;SDS011;3317;43.994;22.878;2022-08-21T02:42:46;17.83;;;15.03;;
6566;SDS011;3317;43.994;22.878;2022-08-21T02:45:13;18.73;;;14.70;;
6566;SDS011;3317;43.994;22.878;2022-08-21T02:47:48;18.80;;;13.63;;
6566;SDS011;3317;43.994;22.878;2022-08-21T02:50:17;25.00;;;15.60;;
6566;SDS011;3317;43.994;22.878;2022-08-21T02:52:46;18.90;;;14.80;;
6566;SDS011;3317;43.994;22.878;2022-08-21T02:55:13;17.40;;;15.07;;
6566;SDS011;3317;43.994;22.878;2022-08-21T02:57:40;21.90;;;15.87;;
6566;SDS011;3317;43.994;22.878;2022-08-21T03:00:08;22.43;;;15.20;;
6566;SDS011;3317;43.994;22.878;2022-08-21T03:02:36;18.20;;;14.67;;
6566;SDS011;3317;43.994;22.878;2022-08-21T03:05:06;16.50;;;13.23;;
6566;SDS011;3317;43.994;22.878;2022-08-21T03:07:36;22.20;;;14.80;;
6566;SDS011;3317;43.994;22.878;2022-08-21T03:10:04;21.93;;;15.63;;
6566;SDS011;3317;43.994;22.878;2022-08-21T03:12:33;20.30;;;16.10;;
6566;SDS011;3317;43.994;22.878;2022-08-21T03:15:01;17.03;;;14.97;;
6566;SDS011;3317;43.994;22.878;2022-08-21T03:17:28;20.70;;;14.83;;
6566;SDS011;3317;43.994;22.878;2022-08-21T03:19:55;18.90;;;14.73;;
6566;SDS011;3317;43.994;22.878;2022-08-21T03:22:24;16.77;;;14.50;;
6566;SDS011;3317;43.994;22.878;2022-08-21T03:24:52;20.10;;;13.97;;
6566;SDS011;3317;43.994;22.878;2022-08-21T03:27:19;18.67;;;14.90;;
6566;SDS011;3317;43.994;22.878;2022-08-21T03:29:46;22.13;;;14.93;;
6566;SDS011;3317;43.994;22.878;2022-08-21T03:32:13;19.00;;;15.73;;
6566;SDS011;3317;43.994;22.878;2022-08-21T03:34:40;21.53;;;15.40;;
6566;SDS011;3317;43.994;22.878;2022-08-21T03:37:07;22.30;;;17.90;;
6566;SDS011;3317;43.994;22.878;2022-08-21T03:39:36;26.37;;;18.20;;
6566;SDS011;3317;43.994;22.878;2022-08-21T03:42:03;20.90;;;17.40;;
6566;SDS011;3317;43.994;22.878;2022-08-21T03:44:31;19.77;;;16.87;;
6566;SDS011;3317;43.994;22.878;2022-08-21T03:46:58;21.97;;;16.20;;
6566;SDS011;3317;43.994;22.878;2022-08-21T03:49:25;23.60;;;15.60;;
6566;SDS011;3317;43.994;22.878;2022-08-21T03:51:53;22.80;;;16.40;;
6566;SDS011;3317;43.994;22.878;2022-08-21T03:54:20;22.90;;;16.80;;
6566;SDS011;3317;43.994;22.878;2022-08-21T03:56:48;18.93;;;15.17;;
6566;SDS011;3317;43.994;22.878;2022-08-21T03:59:18;22.80;;;15.70;;
6566;SDS011;3317;43.994;22.878;2022-08-21T04:01:51;24.40;;;16.37;;
6566;SDS011;3317;43.994;22.878;2022-08-21T04:04:19;19.90;;;15.30;;
6566;SDS011;3317;43.994;22.878;2022-08-21T04:06:46;18.53;;;16.30;;
6566;SDS011;3317;43.994;22.878;2022-08-21T04:09:16;21.17;;;16.57;;
6566;SDS011;3317;43.994;22.878;2022-08-21T04:11:43;20.47;;;15.93;;
6566;SDS011;3317;43.994;22.878;2022-08-21T04:14:12;18.70;;;15.53;;
6566;SDS011;3317;43.994;22.878;2022-08-21T04:16:40;20.90;;;16.80;;
6566;SDS011;3317;43.994;22.878;2022-08-21T04:19:07;19.67;;;15.27;;
6566;SDS011;3317;43.994;22.878;2022-08-21T04:21:35;20.17;;;16.30;;
6566;SDS011;3317;43.994;22.878;2022-08-21T04:24:03;20.07;;;16.53;;
6566;SDS011;3317;43.994;22.878;2022-08-21T04:26:30;22.70;;;17.50;;
6566;SDS011;3317;43.994;22.878;2022-08-21T04:28:59;22.43;;;17.10;;
6566;SDS011;3317;43.994;22.878;2022-08-21T04:31:27;20.90;;;16.40;;
6566;SDS011;3317;43.994;22.878;2022-08-21T04:33:54;18.97;;;16.20;;
6566;SDS011;3317;43.994;22.878;2022-08-21T04:36:22;19.77;;;16.20;;
6566;SDS011;3317;43.994;22.878;2022-08-21T04:38:49;19.73;;;15.00;;
6566;SDS011;3317;43.994;22.878;2022-08-21T04:41:16;20.97;;;16.73;;
6566;SDS011;3317;43.994;22.878;2022-08-21T04:43:43;20.97;;;15.60;;
6566;SDS011;3317;43.994;22.878;2022-08-21T04:46:10;24.03;;;16.50;;
6566;SDS011;3317;43.994;22.878;2022-08-21T04:48:39;18.30;;;15.37;;
6566;SDS011;3317;43.994;22.878;2022-08-21T04:51:06;20.27;;;15.40;;
6566;SDS011;3317;43.994;22.878;2022-08-21T04:53:39;21.13;;;16.90;;
6566;SDS011;3317;43.994;22.878;2022-08-21T04:56:12;20.20;;;15.17;;
6566;SDS011;3317;43.994;22.878;2022-08-21T04:58:45;20.20;;;15.60;;
6566;SDS011;3317;43.994;22.878;2022-08-21T05:01:15;19.20;;;16.73;;
6566;SDS011;3317;43.994;22.878;2022-08-21T05:03:47;23.37;;;16.30;;
6566;SDS011;3317;43.994;22.878;2022-08-21T05:06:16;19.93;;;16.80;;
6566;SDS011;3317;43.994;22.878;2022-08-21T05:08:43;22.03;;;16.37;;
6566;SDS011;3317;43.994;22.878;2022-08-21T05:11:13;20.50;;;16.03;;
6566;SDS011;3317;43.994;22.878;2022-08-21T05:13:41;23.43;;;14.83;;
6566;SDS011;3317;43.994;22.878;2022-08-21T05:16:08;20.20;;;16.77;;
6566;SDS011;3317;43.994;22.878;2022-08-21T05:18:35;20.80;;;16.77;;
6566;SDS011;3317;43.994;22.878;2022-08-21T05:21:04;20.73;;;16.27;;
6566;SDS011;3317;43.994;22.878;2022-08-21T05:23:31;19.10;;;14.63;;
6566;SDS011;3317;43.994;22.878;2022-08-21T05:25:58;25.33;;;16.97;;
6566;SDS011;3317;43.994;22.878;2022-08-21T05:28:26;21.23;;;14.60;;
6566;SDS011;3317;43.994;22.878;2022-08-21T05:30:53;23.83;;;15.90;;
6566;SDS011;3317;43.994;22.878;2022-08-21T05:33:20;20.10;;;14.57;;
6566;SDS011;3317;43.994;22.878;2022-08-21T05:35:49;20.30;;;14.00;;
6566;SDS011;3317;43.994;22.878;2022-08-21T05:38:18;17.70;;;13.80;;
6566;SDS011;3317;43.994;22.878;2022-08-21T05:40:46;20.53;;;13.67;;
6566;SDS011;3317;43.994;22.878;2022-08-21T05:43:13;19.40;;;14.57;;
6566;SDS011;3317;43.994;22.878;2022-08-21T05:45:40;20.33;;;13.90;;
6566;SDS011;3317;43.994;22.878;2022-08-21T05:48:11;17.43;;;13.60;;
6566;SDS011;3317;43.994;22.878;2022-08-21T05:50:41;20.27;;;14.47;;
6566;SDS011;3317;43.994;22.878;2022-08-21T05:53:08;19.33;;;15.17;;
6566;SDS011;3317;43.994;22.878;2022-08-21T05:55:37;26.47;;;15.10;;
6566;SDS011;3317;43.994;22.878;2022-08-21T05:58:06;18.50;;;15.67;;
6566;SDS011;3317;43.994;22.878;2022-08-21T06:00:33;21.07;;;17.10;;
6566;SDS011;3317;43.994;22.878;2022-08-21T06:03:00;16.63;;;14.30;;
6566;SDS011;3317;43.994;22.878;2022-08-21T06:05:27;20.20;;;16.53;;
6566;SDS011;3317;43.994;22.878;2022-08-21T06:07:54;20.80;;;15.70;;
6566;SDS011;3317;43.994;22.878;2022-08-21T06:10:21;22.20;;;15.33;;
6566;SDS011;3317;43.994;22.878;2022-08-21T06:12:53;21.33;;;15.00;;
6566;SDS011;3317;43.994;22.878;2022-08-21T06:15:21;18.60;;;14.60;;
6566;SDS011;3317;43.994;22.878;2022-08-21T06:17:48;16.60;;;13.60;;
6566;SDS011;3317;43.994;22.878;2022-08-21T06:20:15;17.53;;;11.13;;
6566;SDS011;3317;43.994;22.878;2022-08-21T06:22:42;15.07;;;12.40;;
6566;SDS011;3317;43.994;22.878;2022-08-21T06:25:09;20.67;;;14.50;;
6566;SDS011;3317;43.994;22.878;2022-08-21T06:27:36;24.73;;;14.07;;
6566;SDS011;3317;43.994;22.878;2022-08-21T06:30:06;14.37;;;11.70;;
6566;SDS011;3317;43.994;22.878;2022-08-21T06:32:34;18.53;;;13.13;;
6566;SDS011;3317;43.994;22.878;2022-08-21T06:35:02;18.17;;;12.93;;
6566;SDS011;3317;43.994;22.878;2022-08-21T06:37:29;20.13;;;14.70;;
6566;SDS011;3317;43.994;22.878;2022-08-21T06:39:56;18.50;;;12.53;;
6566;SDS011;3317;43.994;22.878;2022-08-21T06:42:23;21.60;;;14.13;;
6566;SDS011;3317;43.994;22.878;2022-08-21T06:44:52;15.27;;;12.67;;
6566;SDS011;3317;43.994;22.878;2022-08-21T06:47:22;17.43;;;12.43;;
6566;SDS011;3317;43.994;22.878;2022-08-21T06:49:49;17.13;;;11.60;;
6566;SDS011;3317;43.994;22.878;2022-08-21T06:52:16;19.73;;;11.90;;
6566;SDS011;3317;43.994;22.878;2022-08-21T06:54:43;16.07;;;12.97;;
6566;SDS011;3317;43.994;22.878;2022-08-21T06:57:10;16.23;;;10.27;;
6566;SDS011;3317;43.994;22.878;2022-08-21T06:59:37;12.83;;;11.10;;
6566;SDS011;3317;43.994;22.878;2022-08-21T07:02:04;15.10;;;11.40;;
6566;SDS011;3317;43.994;22.878;2022-08-21T07:04:33;17.20;;;11.70;;
6566;SDS011;3317;43.994;22.878;2022-08-21T07:07:00;13.33;;;10.90;;
6566;SDS011;3317;43.994;22.878;2022-08-21T07:09:27;12.70;;;9.67;;
6566;SDS011;3317;43.994;22.878;2022-08-21T07:11:55;15.13;;;9.90;;
6566;SDS011;3317;43.994;22.878;2022-08-21T07:14:22;19.70;;;11.50;;
6566;SDS011;3317;43.994;22.878;2022-08-21T07:16:50;16.43;;;9.60;;
6566;SDS011;3317;43.994;22.878;2022-08-21T07:19:17;13.60;;;10.60;;
6566;SDS011;3317;43.994;22.878;2022-08-21T07:21:46;16.53;;;10.83;;
6566;SDS011;3317;43.994;22.878;2022-08-21T07:24:13;19.30;;;9.57;;
6566;SDS011;3317;43.994;22.878;2022-08-21T07:26:40;16.40;;;11.17;;
6566;SDS011;3317;43.994;22.878;2022-08-21T07:29:08;17.93;;;10.17;;
6566;SDS011;3317;43.994;22.878;2022-08-21T07:31:35;17.60;;;10.77;;
6566;SDS011;3317;43.994;22.878;2022-08-21T07:34:02;14.43;;;10.27;;
6566;SDS011;3317;43.994;22.878;2022-08-21T07:36:29;14.20;;;9.10;;
6566;SDS011;3317;43.994;22.878;2022-08-21T07:38:58;15.70;;;10.27;;
6566;SDS011;3317;43.994;22.878;2022-08-21T07:41:26;16.33;;;10.50;;
6566;SDS011;3317;43.994;22.878;2022-08-21T07:43:57;19.07;;;9.67;;
6566;SDS011;3317;43.994;22.878;2022-08-21T07:46:26;13.30;;;10.60;;
6566;SDS011;3317;43.994;22.878;2022-08-21T07:48:54;19.17;;;10.70;;
6566;SDS011;3317;43.994;22.878;2022-08-21T07:51:23;15.43;;;9.93;;
6566;SDS011;3317;43.994;22.878;2022-08-21T07:53:54;16.60;;;11.00;;
6566;SDS011;3317;43.994;22.878;2022-08-21T07:56:24;11.60;;;9.40;;
6566;SDS011;3317;43.994;22.878;2022-08-21T07:58:51;16.73;;;10.20;;
6566;SDS011;3317;43.994;22.878;2022-08-21T08:01:19;14.13;;;9.10;;
6566;SDS011;3317;43.994;22.878;2022-08-21T08:03:46;13.60;;;9.00;;
6566;SDS011;3317;43.994;22.878;2022-08-21T08:06:13;13.93;;;9.20;;
6566;SDS011;3317;43.994;22.878;2022-08-21T08:08:41;12.20;;;8.47;;
6566;SDS011;3317;43.994;22.878;2022-08-21T08:11:09;14.53;;;8.70;;
6566;SDS011;3317;43.994;22.878;2022-08-21T08:13:42;12.40;;;9.60;;
6566;SDS011;3317;43.994;22.878;2022-08-21T08:16:10;13.73;;;9.10;;
6566;SDS011;3317;43.994;22.878;2022-08-21T08:18:37;11.80;;;9.47;;
6566;SDS011;3317;43.994;22.878;2022-08-21T08:21:04;10.07;;;8.33;;
6566;SDS011;3317;43.994;22.878;2022-08-21T08:23:32;11.07;;;8.73;;
6566;SDS011;3317;43.994;22.878;2022-08-21T08:26:00;11.80;;;8.70;;
6566;SDS011;3317;43.994;22.878;2022-08-21T08:28:27;14.47;;;9.23;;
6566;SDS011;3317;43.994;22.878;2022-08-21T08:30:58;12.70;;;9.40;;
6566;SDS011;3317;43.994;22.878;2022-08-21T08:33:25;13.63;;;8.83;;
6566;SDS011;3317;43.994;22.878;2022-08-21T08:35:52;14.20;;;9.03;;
6566;SDS011;3317;43.994;22.878;2022-08-21T08:38:20;12.70;;;9.40;;
6566;SDS011;3317;43.994;22.878;2022-08-21T08:40:50;14.50;;;10.57;;
6566;SDS011;3317;43.994;22.878;2022-08-21T08:43:25;12.97;;;9.90;;
6566;SDS011;3317;43.994;22.878;2022-08-21T08:45:55;13.87;;;11.70;;
6566;SDS011;3317;43.994;22.878;2022-08-21T08:48:36;10.47;;;9.27;;
6566;SDS011;3317;43.994;22.878;2022-08-21T08:51:12;16.17;;;9.90;;
6566;SDS011;3317;43.994;22.878;2022-08-21T08:53:45;14.60;;;9.73;;
6566;SDS011;3317;43.994;22.878;2022-08-21T08:56:18;13.50;;;9.87;;
6566;SDS011;3317;43.994;22.878;2022-08-21T08:58:52;20.30;;;9.47;;
6566;SDS011;3317;43.994;22.878;2022-08-21T09:01:24;15.47;;;10.80;;
6566;SDS011;3317;43.994;22.878;2022-08-21T09:03:50;14.77;;;10.10;;
6566;SDS011;3317;43.994;22.878;2022-08-21T09:06:21;14.63;;;8.83;;
6566;SDS011;3317;43.994;22.878;2022-08-21T09:09:02;13.90;;;9.03;;
6566;SDS011;3317;43.994;22.878;2022-08-21T09:11:40;12.47;;;9.27;;
6566;SDS011;3317;43.994;22.878;2022-08-21T09:14:13;12.17;;;8.33;;
6566;SDS011;3317;43.994;22.878;2022-08-21T09:16:54;15.30;;;8.37;;
6566;SDS011;3317;43.994;22.878;2022-08-21T09:19:28;12.83;;;8.90;;
6566;SDS011;3317;43.994;22.878;2022-08-21T09:22:07;13.80;;;9.33;;
6566;SDS011;3317;43.994;22.878;2022-08-21T09:24:43;11.73;;;8.43;;
6566;SDS011;3317;43.994;22.878;2022-08-21T09:27:20;12.70;;;9.20;;
6566;SDS011;3317;43.994;22.878;2022-08-21T09:29:50;14.10;;;9.43;;
6566;SDS011;3317;43.994;22.878;2022-08-21T09:32:22;11.83;;;8.60;;
6566;SDS011;3317;43.994;22.878;2022-08-21T09:34:55;17.90;;;8.67;;
6566;SDS011;3317;43.994;22.878;2022-08-21T09:37:24;12.50;;;9.17;;
6566;SDS011;3317;43.994;22.878;2022-08-21T09:39:54;12.27;;;8.97;;
6566;SDS011;3317;43.994;22.878;2022-08-21T09:42:24;11.00;;;7.73;;
6566;SDS011;3317;43.994;22.878;2022-08-21T09:45:04;14.13;;;8.63;;
6566;SDS011;3317;43.994;22.878;2022-08-21T09:47:36;12.90;;;9.30;;
6566;SDS011;3317;43.994;22.878;2022-08-21T09:50:07;9.60;;;8.53;;
6566;SDS011;3317;43.994;22.878;2022-08-21T09:52:41;12.80;;;9.00;;
6566;SDS011;3317;43.994;22.878;2022-08-21T09:55:13;15.63;;;8.50;;
6566;SDS011;3317;43.994;22.878;2022-08-21T09:57:58;12.00;;;8.90;;
6566;SDS011;3317;43.994;22.878;2022-08-21T10:00:29;13.40;;;8.63;;
6566;SDS011;3317;43.994;22.878;2022-08-21T10:03:15;15.10;;;8.77;;
6566;SDS011;3317;43.994;22.878;2022-08-21T10:05:52;12.70;;;8.73;;
6566;SDS011;3317;43.994;22.878;2022-08-21T10:08:22;10.80;;;8.70;;
6566;SDS011;3317;43.994;22.878;2022-08-21T10:10:51;16.83;;;8.20;;
6566;SDS011;3317;43.994;22.878;2022-08-21T10:13:24;12.83;;;8.53;;
6566;SDS011;3317;43.994;22.878;2022-08-21T10:16:11;12.10;;;7.70;;
6566;SDS011;3317;43.994;22.878;2022-08-21T10:18:46;13.00;;;7.83;;
6566;SDS011;3317;43.994;22.878;2022-08-21T10:21:23;11.43;;;8.60;;
6566;SDS011;3317;43.994;22.878;2022-08-21T10:24:01;12.57;;;8.67;;
6566;SDS011;3317;43.994;22.878;2022-08-21T10:26:37;11.03;;;8.33;;
6566;SDS011;3317;43.994;22.878;2022-08-21T10:29:16;13.23;;;8.47;;
6566;SDS011;3317;43.994;22.878;2022-08-21T10:31:53;13.17;;;8.40;;
6566;SDS011;3317;43.994;22.878;2022-08-21T10:34:33;12.10;;;8.73;;
6566;SDS011;3317;43.994;22.878;2022-08-21T10:37:12;16.40;;;8.00;;
6566;SDS011;3317;43.994;22.878;2022-08-21T10:39:50;13.00;;;8.10;;
6566;SDS011;3317;43.994;22.878;2022-08-21T10:42:28;10.10;;;7.67;;
6566;SDS011;3317;43.994;22.878;2022-08-21T10:45:05;16.10;;;7.87;;
6566;SDS011;3317;43.994;22.878;2022-08-21T10:47:40;10.40;;;8.40;;
6566;SDS011;3317;43.994;22.878;2022-08-21T10:50:16;12.70;;;7.77;;
6566;SDS011;3317;43.994;22.878;2022-08-21T10:52:52;11.53;;;7.67;;
6566;SDS011;3317;43.994;22.878;2022-08-21T10:55:31;14.10;;;8.53;;
6566;SDS011;3317;43.994;22.878;2022-08-21T10:58:04;12.57;;;8.20;;
6566;SDS011;3317;43.994;22.878;2022-08-21T11:00:40;11.57;;;7.63;;
6566;SDS011;3317;43.994;22.878;2022-08-21T11:03:13;9.43;;;8.00;;
6566;SDS011;3317;43.994;22.878;2022-08-21T11:05:46;10.00;;;7.37;;
6566;SDS011;3317;43.994;22.878;2022-08-21T11:08:18;8.63;;;6.97;;
6566;SDS011;3317;43.994;22.878;2022-08-21T11:10:50;10.60;;;7.50;;
6566;SDS011;3317;43.994;22.878;2022-08-21T11:13:22;9.50;;;6.60;;
6566;SDS011;3317;43.994;22.878;2022-08-21T11:16:00;16.23;;;8.70;;
6566;SDS011;3317;43.994;22.878;2022-08-21T11:18:32;10.13;;;7.33;;
6566;SDS011;3317;43.994;22.878;2022-08-21T11:21:06;9.53;;;7.83;;
6566;SDS011;3317;43.994;22.878;2022-08-21T11:23:46;11.20;;;7.30;;
6566;SDS011;3317;43.994;22.878;2022-08-21T11:26:21;12.20;;;7.80;;
6566;SDS011;3317;43.994;22.878;2022-08-21T11:28:54;13.70;;;6.87;;
6566;SDS011;3317;43.994;22.878;2022-08-21T11:31:32;12.10;;;7.50;;
6566;SDS011;3317;43.994;22.878;2022-08-21T11:34:08;12.50;;;7.73;;
6566;SDS011;3317;43.994;22.878;2022-08-21T11:36:50;7.80;;;6.50;;
6566;SDS011;3317;43.994;22.878;2022-08-21T11:39:25;11.70;;;6.90;;
6566;SDS011;3317;43.994;22.878;2022-08-21T11:42:00;10.40;;;6.80;;
6566;SDS011;3317;43.994;22.878;2022-08-21T11:44:37;9.50;;;6.73;;
6566;SDS011;3317;43.994;22.878;2022-08-21T11:47:12;11.73;;;7.60;;
6566;SDS011;3317;43.994;22.878;2022-08-21T11:49:53;8.03;;;6.87;;
6566;SDS011;3317;43.994;22.878;2022-08-21T11:52:32;8.97;;;6.87;;
6566;SDS011;3317;43.994;22.878;2022-08-21T11:55:06;13.40;;;6.80;;
6566;SDS011;3317;43.994;22.878;2022-08-21T11:57:40;15.53;;;7.63;;
6566;SDS011;3317;43.994;22.878;2022-08-21T12:00:18;10.73;;;7.10;;
6566;SDS011;3317;43.994;22.878;2022-08-21T12:02:50;9.63;;;7.23;;
6566;SDS011;3317;43.994;22.878;2022-08-21T12:05:24;10.63;;;6.60;;
6566;SDS011;3317;43.994;22.878;2022-08-21T12:08:03;8.87;;;7.10;;
6566;SDS011;3317;43.994;22.878;2022-08-21T12:10:33;7.43;;;6.60;;
6566;SDS011;3317;43.994;22.878;2022-08-21T12:13:06;9.73;;;5.63;;
6566;SDS011;3317;43.994;22.878;2022-08-21T12:15:36;8.90;;;5.00;;
6566;SDS011;3317;43.994;22.878;2022-08-21T12:18:04;6.83;;;4.50;;
6566;SDS011;3317;43.994;22.878;2022-08-21T12:20:35;5.97;;;3.97;;
6566;SDS011;3317;43.994;22.878;2022-08-21T12:23:16;4.97;;;3.90;;
6566;SDS011;3317;43.994;22.878;2022-08-21T12:25:59;9.37;;;4.73;;
6566;SDS011;3317;43.994;22.878;2022-08-21T12:28:28;5.00;;;4.00;;
6566;SDS011;3317;43.994;22.878;2022-08-21T12:30:57;4.90;;;3.70;;
6566;SDS011;3317;43.994;22.878;2022-08-21T12:33:27;7.93;;;3.97;;
6566;SDS011;3317;43.994;22.878;2022-08-21T12:36:03;5.83;;;4.13;;
6566;SDS011;3317;43.994;22.878;2022-08-21T12:38:41;5.00;;;4.10;;
6566;SDS011;3317;43.994;22.878;2022-08-21T12:41:15;6.77;;;4.73;;
6566;SDS011;3317;43.994;22.878;2022-08-21T12:43:50;8.37;;;5.40;;
6566;SDS011;3317;43.994;22.878;2022-08-21T12:46:26;17.87;;;6.70;;
6566;SDS011;3317;43.994;22.878;2022-08-21T12:49:00;10.00;;;4.53;;
6566;SDS011;3317;43.994;22.878;2022-08-21T12:51:31;10.90;;;5.57;;
6566;SDS011;3317;43.994;22.878;2022-08-21T12:54:05;8.30;;;4.90;;
6566;SDS011;3317;43.994;22.878;2022-08-21T12:56:33;12.10;;;4.47;;
6566;SDS011;3317;43.994;22.878;2022-08-21T12:59:02;5.10;;;4.53;;
6566;SDS011;3317;43.994;22.878;2022-08-21T13:01:31;8.83;;;5.13;;
6566;SDS011;3317;43.994;22.878;2022-08-21T13:04:02;12.77;;;5.67;;
6566;SDS011;3317;43.994;22.878;2022-08-21T13:06:37;7.33;;;5.00;;
6566;SDS011;3317;43.994;22.878;2022-08-21T13:09:07;11.07;;;5.43;;
6566;SDS011;3317;43.994;22.878;2022-08-21T13:11:39;11.30;;;5.20;;
6566;SDS011;3317;43.994;22.878;2022-08-21T13:14:08;7.80;;;6.20;;
6566;SDS011;3317;43.994;22.878;2022-08-21T13:16:41;12.50;;;5.43;;
6566;SDS011;3317;43.994;22.878;2022-08-21T13:19:11;9.40;;;5.33;;
6566;SDS011;3317;43.994;22.878;2022-08-21T13:21:43;11.60;;;5.27;;
6566;SDS011;3317;43.994;22.878;2022-08-21T13:24:16;9.83;;;5.00;;
6566;SDS011;3317;43.994;22.878;2022-08-21T13:26:45;6.80;;;4.37;;
6566;SDS011;3317;43.994;22.878;2022-08-21T13:29:16;12.30;;;6.00;;
6566;SDS011;3317;43.994;22.878;2022-08-21T13:31:46;10.53;;;5.13;;
6566;SDS011;3317;43.994;22.878;2022-08-21T13:34:15;7.30;;;5.27;;
6566;SDS011;3317;43.994;22.878;2022-08-21T13:36:44;8.33;;;5.20;;
6566;SDS011;3317;43.994;22.878;2022-08-21T13:39:12;7.33;;;4.70;;
6566;SDS011;3317;43.994;22.878;2022-08-21T13:41:45;7.87;;;4.40;;
6566;SDS011;3317;43.994;22.878;2022-08-21T13:44:15;8.10;;;4.70;;
6566;SDS011;3317;43.994;22.878;2022-08-21T13:46:44;11.17;;;4.90;;
6566;SDS011;3317;43.994;22.878;2022-08-21T13:49:14;10.93;;;6.40;;
6566;SDS011;3317;43.994;22.878;2022-08-21T13:51:44;11.10;;;5.80;;
6566;SDS011;3317;43.994;22.878;2022-08-21T13:54:23;10.67;;;5.10;;
6566;SDS011;3317;43.994;22.878;2022-08-21T13:56:53;10.80;;;5.80;;
6566;SDS011;3317;43.994;22.878;2022-08-21T13:59:25;8.70;;;5.80;;
6566;SDS011;3317;43.994;22.878;2022-08-21T14:01:55;8.40;;;5.37;;
6566;SDS011;3317;43.994;22.878;2022-08-21T14:04:26;10.53;;;6.07;;
6566;SDS011;3317;43.994;22.878;2022-08-21T14:07:14;8.20;;;5.90;;
6566;SDS011;3317;43.994;22.878;2022-08-21T14:09:45;7.80;;;5.53;;
6566;SDS011;3317;43.994;22.878;2022-08-21T14:12:13;7.57;;;5.60;;
6566;SDS011;3317;43.994;22.878;2022-08-21T14:14:43;8.73;;;5.30;;
6566;SDS011;3317;43.994;22.878;2022-08-21T14:17:13;8.97;;;5.83;;
6566;SDS011;3317;43.994;22.878;2022-08-21T14:19:51;7.70;;;5.83;;
6566;SDS011;3317;43.994;22.878;2022-08-21T14:22:22;8.53;;;4.97;;
6566;SDS011;3317;43.994;22.878;2022-08-21T14:25:00;12.10;;;5.90;;
6566;SDS011;3317;43.994;22.878;2022-08-21T14:27:31;6.03;;;5.30;;
6566;SDS011;3317;43.994;22.878;2022-08-21T14:30:00;8.23;;;5.17;;
6566;SDS011;3317;43.994;22.878;2022-08-21T14:32:35;8.10;;;5.07;;
6566;SDS011;3317;43.994;22.878;2022-08-21T14:35:04;7.20;;;5.13;;
6566;SDS011;3317;43.994;22.878;2022-08-21T14:37:32;7.10;;;5.40;;
6566;SDS011;3317;43.994;22.878;2022-08-21T14:40:02;11.83;;;6.40;;
6566;SDS011;3317;43.994;22.878;2022-08-21T14:42:30;9.33;;;6.30;;
6566;SDS011;3317;43.994;22.878;2022-08-21T14:45:07;8.97;;;6.63;;
6566;SDS011;3317;43.994;22.878;2022-08-21T14:47:39;9.97;;;5.90;;
6566;SDS011;3317;43.994;22.878;2022-08-21T14:50:08;10.00;;;5.60;;
6566;SDS011;3317;43.994;22.878;2022-08-21T14:52:35;7.13;;;5.60;;
6566;SDS011;3317;43.994;22.878;2022-08-21T14:55:05;9.90;;;6.23;;
6566;SDS011;3317;43.994;22.878;2022-08-21T14:57:33;7.40;;;6.20;;
6566;SDS011;3317;43.994;22.878;2022-08-21T15:00:00;7.43;;;5.87;;
6566;SDS011;3317;43.994;22.878;2022-08-21T15:02:31;8.90;;;6.00;;